Coral Springs, FL (33071)

12:02 PM EDT on September 02, 2015 (GMT -0400)
Oakwood | | Change Station
CLOSE
Current Station
Personal Weather Station
Location: Coral Springs, FL
Elevation: 13 ft
Nearby Weather Stations

Elev 13 ft 26.24 °N, 80.26 °W | Updated 21 seconds ago

Partly Cloudy
Partly Cloudy
90.3 °F
Feels Like 108 °F
N
2.0
Wind Variable Wind from West
Gusts 2.0 mph

Today
High -- | Low -- °F
--% Chance of Precip.
Yesterday
High -- | Low -- °F
Precip. -- in
7:01 AM 7:39 PM
Waning Gibbous, 79% visible
Pressure 30.10 in
Visibility 10.0 miles
Clouds Scattered Clouds 6500 ft
Scattered Clouds 9500 ft
Heat Index 108 °F
Dew Point 80 °F
Humidity 72%
Rainfall 0.02 in
Snow Depth Not available.
UV 10 out of 12
Pollen 4.00 out of 12
Air Quality Not available.
Flu Activity Not available.
METAR KFXE 021553Z 18004KT 10SM SCT065 SCT095 31/24 A3009 RMK AO2 SLP192 T03110239
Pressure 30.10 in
Visibility 10.0 miles
Clouds Scattered Clouds 6500 ft
Scattered Clouds 9500 ft
Heat Index 108 °F
Dew Point 80 °F
Humidity 72%
Rainfall 0.02 in
Snow Depth Not available.
UV 10 out of 12
Pollen 4.00 out of 12
Air Quality Not available.
Flu Activity Not available.
METAR KFXE 021553Z 18004KT 10SM SCT065 SCT095 31/24 A3009 RMK AO2 SLP192 T03110239

10-Day Weather Forecast

×

Almanac

Astronomy

Sep. 02, 2015 Rise Set
Actual Time
Civil Twilight
Nautical Twilight
Astronomical Twilight
Moon
Length of Visible Light
Length of Day
Tomorrow will be .
, % of the Moon is Illuminated

Today's Extremes

State Highs State Lows

Community

WunderPhotos

Upload Photos

1,851,776 photos uploaded!

WunderBlogs® & News

Nearby

Air Quality

  Air Quality AQ Index Pollutant
Not available.

Snow Depth

Station Depth Elevation

Earthquake Activity

City Distance Mag. Time & Date
Minimum magnitude displayed is 2.5.

Coastal Water Temperatures

Place Temperature

Stations

Nearby Weather Stations

Station Location Temp. Windchill Dew Point Humidity Wind Precip. Elev Updated Type